Traskwood, Arkansas
Current Conditions -  °F | °C
As of 5:53 PM on Thursday 18 Dec 2014 (Local Time) from KHOT Reporting Station
Overcast Overcast  
Wind Chill: 39°   Ceiling: 600
Heat Index: 43°   Visibility: 10mi
Dew Point: 40°   Wind: 7mph
Humidity: 89%   Direction: 70°ENE
Pressure: 30.18"   Gusts: NA
Location:  34.45°N, 92.65°W
Report Text: KHOT 182353Z AUTO 07006KT 10SM OVC006 06/04 A3018 RMK AO2 SLP221 T00610044 10067 20050 53007
Loading
Personal Weather Stations






























Interactive Weather Map New forecast layout! Learn more

10-Day Weather Forecast

Advertisements
Track Severe Weather on mobile